Time;durP1;ratioP1;P1;durP2;ratioP2;P2;SDS_P1;SDS_P2;PMS_P1;PMS_P2;Temp;Humidity;BMP_temperature;BMP_pressure;BME280_temperature;BME280_humidity;BME280_pressure;Samples;Min_cycle;Max_cycle;Signal;HPM_P1;HPM_P2
2022/05/21 00:01:54;;;;;;;2.47;1.90;;;;;;;;;;5053557;28;20028;-71
2022/05/21 00:04:20;;;;;;;5.38;1.98;;;;;;;;;;5050652;28;20027;-71
2022/05/21 00:06:47;;;;;;;3.58;2.10;;;;;;;;;;5052130;28;20031;-71
2022/05/21 00:09:13;;;;;;;3.88;2.22;;;;;;;;;;5051686;28;20017;-71
2022/05/21 00:11:40;;;;;;;6.90;1.92;;;;;;;;;;5051632;28;20035;-71
2022/05/21 00:14:07;;;;;;;5.30;2.30;;;;;;;;;;5052741;28;20490;-71
2022/05/21 00:16:33;;;;;;;5.07;2.15;;;;;;;;;;5052591;28;20021;-71
2022/05/21 00:19:00;;;;;;;5.22;2.20;;;;;;;;;;5051628;28;20032;-71
2022/05/21 00:21:26;;;;;;;3.55;2.03;;;;;;;;;;5051815;28;20017;-71
2022/05/21 00:23:52;;;;;;;5.38;2.38;;;;;;;;;;5051518;28;20062;-71
2022/05/21 00:26:19;;;;;;;6.97;2.13;;;;;;;;;;5051536;28;20082;-71
2022/05/21 00:28:46;;;;;;;7.97;2.30;;;;;;;;;;5053463;28;20027;-71
2022/05/21 00:31:14;;;;;;;5.60;2.17;;;;;;;;;;5050140;28;20045;-71
2022/05/21 00:33:41;;;;;;;3.95;2.28;;;;;;;;;;5051280;28;20021;-71
2022/05/21 00:36:08;;;;;;;4.45;2.10;;;;;;;;;;5051099;28;20413;-71
2022/05/21 00:38:35;;;;;;;5.30;2.25;;;;;;;;;;5051778;28;20027;-71
2022/05/21 00:41:01;;;;;;;5.55;2.38;;;;;;;;;;5053310;28;20130;-71
2022/05/21 00:43:45;;;;;;;2.78;2.10;;;;;;;;;;5050439;28;20397;-71
2022/05/21 00:46:32;;;;;;;2.75;2.22;;;;;;;;;;5050757;28;20106;-71
2022/05/21 00:49:05;;;;;;;5.88;2.33;;;;;;;;;;5050940;28;20044;-71
2022/05/21 00:51:35;;;;;;;2.55;2.13;;;;;;;;;;5061941;28;20047;-71
2022/05/21 00:54:02;;;;;;;3.20;2.20;;;;;;;;;;5051041;28;20020;-71
2022/05/21 00:56:32;;;;;;;6.50;2.60;;;;;;;;;;5035335;28;20033;-71
2022/05/21 01:01:44;;;;;;;3.55;2.30;;;;;;;;;;5051200;28;20029;-71
2022/05/21 01:04:11;;;;;;;5.60;2.25;;;;;;;;;;5053115;28;20027;-71
2022/05/21 01:06:37;;;;;;;5.13;2.70;;;;;;;;;;5057395;28;20029;-71
2022/05/21 01:09:05;;;;;;;4.95;2.30;;;;;;;;;;5051010;28;20039;-71
2022/05/21 01:11:31;;;;;;;4.10;2.70;;;;;;;;;;5050809;28;20037;-70
2022/05/21 01:13:57;;;;;;;6.28;2.40;;;;;;;;;;5052407;28;20500;-71
2022/05/21 01:16:24;;;;;;;4.65;2.42;;;;;;;;;;5049623;28;20021;-71
2022/05/21 01:18:50;;;;;;;3.17;2.20;;;;;;;;;;5050514;28;20051;-71
2022/05/21 01:21:16;;;;;;;4.05;2.15;;;;;;;;;;5049253;28;20021;-71
2022/05/21 01:23:43;;;;;;;7.25;2.20;;;;;;;;;;5050722;28;20025;-71
2022/05/21 01:26:18;;;;;;;3.72;2.20;;;;;;;;;;5050970;28;20469;-70
2022/05/21 01:28:44;;;;;;;3.92;2.45;;;;;;;;;;5050942;28;20099;-70
2022/05/21 01:31:10;;;;;;;4.97;2.50;;;;;;;;;;5050089;28;20039;-71
2022/05/21 01:33:38;;;;;;;4.45;2.80;;;;;;;;;;5050248;28;20519;-71
2022/05/21 01:36:06;;;;;;;4.32;2.00;;;;;;;;;;5050287;28;20024;-71
2022/05/21 01:38:33;;;;;;;7.38;2.45;;;;;;;;;;5050376;28;20022;-71
2022/05/21 01:40:59;;;;;;;4.45;2.47;;;;;;;;;;5051965;28;20025;-70
2022/05/21 01:46:12;;;;;;;6.38;2.33;;;;;;;;;;5049976;28;20045;-70
2022/05/21 01:48:38;;;;;;;6.25;2.47;;;;;;;;;;5049956;28;20043;-70
2022/05/21 01:51:06;;;;;;;8.60;2.47;;;;;;;;;;5050056;28;20029;-71
2022/05/21 01:53:33;;;;;;;4.47;2.42;;;;;;;;;;5050043;28;20037;-71
2022/05/21 01:56:00;;;;;;;4.03;2.28;;;;;;;;;;5051530;28;20032;-71
2022/05/21 01:58:27;;;;;;;3.47;2.38;;;;;;;;;;5050119;28;20021;-71
2022/05/21 02:00:54;;;;;;;3.35;2.33;;;;;;;;;;5048353;28;20013;-71
2022/05/21 02:03:20;;;;;;;3.03;2.45;;;;;;;;;;5049955;28;20024;-70
2022/05/21 02:05:46;;;;;;;6.03;2.90;;;;;;;;;;5049880;28;20379;-70
2022/05/21 02:08:13;;;;;;;3.60;2.58;;;;;;;;;;5050177;28;20029;-71
2022/05/21 02:10:41;;;;;;;3.17;2.25;;;;;;;;;;5049541;28;20033;-71
2022/05/21 02:13:12;;;;;;;4.63;2.42;;;;;;;;;;5049230;28;20029;-72
2022/05/21 02:15:38;;;;;;;6.22;3.08;;;;;;;;;;5049897;28;20040;-72
2022/05/21 02:18:04;;;;;;;4.53;2.70;;;;;;;;;;5049625;28;20028;-72
2022/05/21 02:20:31;;;;;;;3.42;2.22;;;;;;;;;;5049777;28;20034;-72
2022/05/21 02:22:57;;;;;;;5.50;2.63;;;;;;;;;;5051778;28;20013;-71
2022/05/21 02:25:24;;;;;;;6.45;2.55;;;;;;;;;;5049580;28;20037;-71
2022/05/21 02:27:50;;;;;;;6.63;2.20;;;;;;;;;;5049069;28;20104;-72
2022/05/21 02:30:16;;;;;;;6.10;2.60;;;;;;;;;;5049747;28;20051;-71
2022/05/21 02:32:43;;;;;;;3.88;2.60;;;;;;;;;;5049360;28;20040;-71
2022/05/21 02:35:09;;;;;;;4.32;2.38;;;;;;;;;;5048985;28;20017;-72
2022/05/21 02:40:21;;;;;;;4.05;2.47;;;;;;;;;;5048290;28;20017;-72
2022/05/21 02:42:47;;;;;;;3.65;2.42;;;;;;;;;;5048985;28;20029;-71
2022/05/21 02:45:15;;;;;;;4.05;2.30;;;;;;;;;;5049146;28;20090;-72
2022/05/21 02:47:41;;;;;;;3.10;2.53;;;;;;;;;;5049321;28;20037;-72
2022/05/21 02:50:08;;;;;;;3.78;2.50;;;;;;;;;;5050257;28;20024;-71
2022/05/21 02:52:34;;;;;;;3.67;2.50;;;;;;;;;;5050659;28;20037;-72
2022/05/21 02:55:00;;;;;;;3.10;2.40;;;;;;;;;;5052235;28;20021;-72
2022/05/21 02:57:27;;;;;;;5.40;2.72;;;;;;;;;;5052838;28;20055;-71
2022/05/21 02:59:53;;;;;;;2.60;2.40;;;;;;;;;;5053060;28;20021;-69
2022/05/21 03:02:19;;;;;;;5.57;2.40;;;;;;;;;;5053107;28;20036;-72
2022/05/21 03:04:46;;;;;;;4.10;2.47;;;;;;;;;;5055066;28;20551;-72
2022/05/21 03:07:13;;;;;;;4.93;2.88;;;;;;;;;;5052911;28;20033;-71
2022/05/21 03:12:24;;;;;;;8.32;2.95;;;;;;;;;;5052747;28;20393;-72
2022/05/21 03:14:50;;;;;;;7.63;3.10;;;;;;;;;;5053375;28;20029;-71
2022/05/21 03:17:17;;;;;;;2.97;2.58;;;;;;;;;;5053306;28;20424;-71
2022/05/21 03:19:43;;;;;;;3.53;2.78;;;;;;;;;;5053119;28;20025;-71
2022/05/21 03:22:09;;;;;;;3.78;2.78;;;;;;;;;;5052778;28;20020;-71
2022/05/21 03:24:36;;;;;;;4.00;2.42;;;;;;;;;;5051017;28;20029;-71
2022/05/21 03:27:02;;;;;;;5.90;3.00;;;;;;;;;;5052664;28;20031;-71
2022/05/21 03:29:28;;;;;;;7.30;3.00;;;;;;;;;;5037179;28;20030;-72
2022/05/21 03:31:54;;;;;;;13.75;3.03;;;;;;;;;;5054472;28;20037;-71
2022/05/21 03:34:21;;;;;;;4.25;2.60;;;;;;;;;;5052451;28;20025;-71
2022/05/21 03:36:47;;;;;;;5.82;3.13;;;;;;;;;;5052426;28;20055;-71
2022/05/21 03:39:13;;;;;;;6.60;3.10;;;;;;;;;;5052203;28;20490;-71
2022/05/21 03:41:40;;;;;;;3.00;2.47;;;;;;;;;;5052605;28;20029;-71
2022/05/21 03:44:06;;;;;;;4.88;2.55;;;;;;;;;;5053759;28;20032;-71
2022/05/21 03:46:34;;;;;;;6.13;2.92;;;;;;;;;;5053096;28;20037;-72
2022/05/21 03:49:00;;;;;;;6.38;3.00;;;;;;;;;;5052065;28;20039;-72
2022/05/21 03:51:26;;;;;;;6.15;2.75;;;;;;;;;;5052058;28;20044;-71
2022/05/21 03:53:53;;;;;;;7.63;2.92;;;;;;;;;;5051700;28;20028;-71
2022/05/21 03:56:19;;;;;;;5.13;2.92;;;;;;;;;;5052446;28;20029;-71
2022/05/21 03:58:45;;;;;;;4.97;3.10;;;;;;;;;;5052759;28;20020;-71
2022/05/21 04:01:12;;;;;;;5.72;2.60;;;;;;;;;;5051785;28;20558;-72
2022/05/21 04:03:38;;;;;;;6.82;2.88;;;;;;;;;;5052201;28;20033;-71
2022/05/21 04:06:04;;;;;;;3.67;2.70;;;;;;;;;;5049491;28;20400;-71
2022/05/21 04:08:31;;;;;;;3.42;2.70;;;;;;;;;;5051520;28;20029;-71
2022/05/21 04:10:57;;;;;;;2.67;2.40;;;;;;;;;;5053939;28;20477;-71
2022/05/21 04:13:23;;;;;;;5.30;2.40;;;;;;;;;;5051736;28;20035;-71
2022/05/21 04:15:50;;;;;;;5.60;2.90;;;;;;;;;;5051609;28;20025;-71
2022/05/21 04:18:17;;;;;;;5.60;3.03;;;;;;;;;;5051982;28;20033;-71
2022/05/21 04:20:44;;;;;;;6.35;2.72;;;;;;;;;;5051865;28;20024;-71
2022/05/21 04:23:10;;;;;;;3.72;2.80;;;;;;;;;;5051985;28;20031;-71
2022/05/21 04:25:37;;;;;;;3.78;2.40;;;;;;;;;;5053714;28;20039;-71
2022/05/21 04:28:03;;;;;;;4.35;2.30;;;;;;;;;;5050257;28;20025;-71
2022/05/21 04:30:30;;;;;;;6.57;2.85;;;;;;;;;;5051389;28;20021;-71
2022/05/21 04:32:57;;;;;;;5.47;2.72;;;;;;;;;;5051381;28;20039;-71
2022/05/21 04:35:24;;;;;;;4.60;2.97;;;;;;;;;;5050908;28;20024;-71
2022/05/21 04:37:51;;;;;;;6.78;2.80;;;;;;;;;;5052320;28;20382;-71
2022/05/21 04:40:22;;;;;;;6.60;2.83;;;;;;;;;;5051516;28;20025;-71
2022/05/21 04:42:48;;;;;;;3.88;2.75;;;;;;;;;;5051464;28;20028;-72
2022/05/21 04:45:15;;;;;;;2.95;2.60;;;;;;;;;;5051094;28;20021;-71
2022/05/21 04:47:42;;;;;;;4.45;2.72;;;;;;;;;;5051045;28;20521;-71
2022/05/21 04:50:09;;;;;;;3.22;2.47;;;;;;;;;;5051936;28;20425;-71
2022/05/21 04:52:36;;;;;;;5.75;2.33;;;;;;;;;;5051965;28;20524;-72
2022/05/21 04:55:07;;;;;;;3.58;2.67;;;;;;;;;;5050843;28;20028;-71
2022/05/21 04:57:33;;;;;;;4.10;2.63;;;;;;;;;;5050965;28;20087;-72
2022/05/21 04:59:59;;;;;;;4.90;2.63;;;;;;;;;;5050985;28;20503;-71
2022/05/21 05:02:26;;;;;;;10.13;2.85;;;;;;;;;;5050834;28;20396;-71
2022/05/21 05:04:52;;;;;;;3.80;2.60;;;;;;;;;;5053159;28;20120;-71
2022/05/21 05:07:19;;;;;;;4.40;2.85;;;;;;;;;;5050446;28;20490;-71
2022/05/21 05:09:46;;;;;;;6.13;3.10;;;;;;;;;;5050566;28;20592;-72
2022/05/21 05:12:13;;;;;;;3.65;2.30;;;;;;;;;;5050544;28;20025;-72
2022/05/21 05:14:39;;;;;;;6.97;2.72;;;;;;;;;;5049554;28;20033;-71
2022/05/21 05:17:06;;;;;;;4.45;2.85;;;;;;;;;;5051635;28;20025;-72
2022/05/21 05:19:33;;;;;;;6.15;3.00;;;;;;;;;;5051616;28;20017;-71
2022/05/21 05:21:59;;;;;;;6.53;2.55;;;;;;;;;;5061253;28;20036;-71
2022/05/21 05:24:26;;;;;;;4.68;2.60;;;;;;;;;;5050651;28;20017;-71
2022/05/21 05:26:52;;;;;;;9.20;3.25;;;;;;;;;;5050697;28;20021;-71
2022/05/21 05:29:18;;;;;;;4.93;2.92;;;;;;;;;;5050204;28;20509;-72
2022/05/21 05:31:45;;;;;;;5.05;2.83;;;;;;;;;;5052666;28;20037;-72
2022/05/21 05:34:11;;;;;;;3.88;2.83;;;;;;;;;;5050235;28;20587;-71
2022/05/21 05:36:38;;;;;;;3.05;2.45;;;;;;;;;;5049898;28;20039;-72
2022/05/21 05:39:04;;;;;;;3.85;2.88;;;;;;;;;;5050009;28;20474;-71
2022/05/21 05:41:30;;;;;;;5.15;2.78;;;;;;;;;;5050455;28;20024;-71
2022/05/21 05:43:57;;;;;;;3.85;2.72;;;;;;;;;;5052218;28;20031;-71
2022/05/21 05:46:24;;;;;;;4.68;2.53;;;;;;;;;;5048723;28;20062;-71
2022/05/21 05:48:51;;;;;;;6.97;2.60;;;;;;;;;;5049981;28;20443;-71
2022/05/21 05:51:18;;;;;;;7.00;3.15;;;;;;;;;;5049357;28;20029;-72
2022/05/21 05:53:45;;;;;;;7.13;3.22;;;;;;;;;;5048870;28;20017;-71
2022/05/21 05:56:11;;;;;;;12.75;3.10;;;;;;;;;;5050494;28;20025;-72
2022/05/21 06:01:24;;;;;;;8.68;3.25;;;;;;;;;;5048620;28;20037;-72
2022/05/21 06:03:51;;;;;;;7.18;3.60;;;;;;;;;;5049309;28;20113;-71
2022/05/21 06:06:17;;;;;;;4.65;2.85;;;;;;;;;;5050137;28;20021;-72
2022/05/21 06:08:44;;;;;;;7.38;3.10;;;;;;;;;;5049663;28;20024;-72
2022/05/21 06:11:11;;;;;;;5.65;2.83;;;;;;;;;;5052511;28;20025;-72
2022/05/21 06:13:37;;;;;;;7.78;3.47;;;;;;;;;;5048610;28;20044;-72
2022/05/21 06:16:04;;;;;;;7.93;3.20;;;;;;;;;;5048304;28;20021;-73
2022/05/21 06:18:30;;;;;;;4.75;2.70;;;;;;;;;;5049640;28;20079;-72
2022/05/21 06:21:01;;;;;;;8.52;2.80;;;;;;;;;;5058197;28;20035;-71
2022/05/21 06:23:27;;;;;;;3.75;2.53;;;;;;;;;;5048145;28;20505;-72
2022/05/21 06:25:54;;;;;;;5.63;2.97;;;;;;;;;;5051792;28;20033;-71
2022/05/21 06:28:21;;;;;;;8.00;3.15;;;;;;;;;;5049688;28;20427;-72
2022/05/21 06:30:47;;;;;;;5.20;3.10;;;;;;;;;;5053280;28;20029;-72
2022/05/21 06:33:24;;;;;;;5.20;2.80;;;;;;;;;;5067411;28;20049;-71
2022/05/21 06:36:08;;;;;;;6.57;3.00;;;;;;;;;;5054285;28;20035;-71
2022/05/21 06:38:35;;;;;;;6.03;3.03;;;;;;;;;;5039403;28;20036;-72
2022/05/21 06:41:02;;;;;;;4.47;2.70;;;;;;;;;;5055422;28;20355;-71
2022/05/21 06:43:28;;;;;;;6.22;3.03;;;;;;;;;;5053235;28;20027;-72
2022/05/21 06:45:55;;;;;;;5.57;2.80;;;;;;;;;;5054063;28;20036;-72
2022/05/21 06:48:21;;;;;;;4.90;2.70;;;;;;;;;;5053367;28;20508;-72
2022/05/21 06:50:47;;;;;;;3.63;2.60;;;;;;;;;;5053858;28;20025;-72
2022/05/21 06:53:14;;;;;;;6.28;3.47;;;;;;;;;;5053808;28;20037;-72
2022/05/21 06:55:40;;;;;;;4.03;2.70;;;;;;;;;;5053711;28;20032;-72
2022/05/21 06:58:07;;;;;;;4.55;2.70;;;;;;;;;;5053614;28;20029;-72
2022/05/21 07:00:33;;;;;;;4.50;2.70;;;;;;;;;;5053448;28;20024;-72
2022/05/21 07:03:00;;;;;;;3.75;2.60;;;;;;;;;;5053165;28;20025;-72
2022/05/21 07:08:15;;;;;;;5.50;2.83;;;;;;;;;;5051840;28;20048;-72
2022/05/21 07:10:42;;;;;;;8.57;2.80;;;;;;;;;;5053576;28;20028;-72
2022/05/21 07:13:08;;;;;;;6.55;2.85;;;;;;;;;;5051779;28;20033;-72
2022/05/21 07:15:35;;;;;;;4.82;2.55;;;;;;;;;;5053192;28;20017;-71
2022/05/21 07:18:01;;;;;;;4.47;2.60;;;;;;;;;;5053192;28;20035;-72
2022/05/21 07:20:28;;;;;;;4.05;2.40;;;;;;;;;;5037515;28;20501;-72
2022/05/21 07:22:55;;;;;;;3.70;2.05;;;;;;;;;;5051073;28;20021;-71
2022/05/21 07:25:23;;;;;;;6.15;2.60;;;;;;;;;;5053099;28;20028;-72
2022/05/21 07:27:50;;;;;;;6.63;2.50;;;;;;;;;;5053279;28;20035;-72
2022/05/21 07:30:16;;;;;;;7.20;2.60;;;;;;;;;;5052869;28;20025;-72
2022/05/21 07:32:44;;;;;;;5.10;2.80;;;;;;;;;;5052593;28;20045;-72
2022/05/21 07:35:12;;;;;;;4.85;2.45;;;;;;;;;;5053810;28;20017;-72
2022/05/21 07:37:39;;;;;;;4.30;2.50;;;;;;;;;;5052910;28;20051;-72
2022/05/21 07:40:06;;;;;;;5.93;2.70;;;;;;;;;;5052749;28;20023;-72
2022/05/21 07:42:32;;;;;;;5.57;2.70;;;;;;;;;;5052931;28;20041;-72
2022/05/21 07:44:59;;;;;;;5.38;2.42;;;;;;;;;;5052663;28;20385;-72
2022/05/21 07:47:25;;;;;;;8.15;3.55;;;;;;;;;;5052296;28;20417;-72
2022/05/21 07:49:54;;;;;;;6.85;2.65;;;;;;;;;;5054692;28;20032;-72
2022/05/21 07:52:20;;;;;;;8.15;2.28;;;;;;;;;;5051118;28;20044;-72
2022/05/21 07:54:47;;;;;;;5.13;2.20;;;;;;;;;;5052749;28;20027;-72
2022/05/21 07:57:13;;;;;;;4.18;2.45;;;;;;;;;;5052379;28;20197;-71
2022/05/21 07:59:39;;;;;;;5.22;2.50;;;;;;;;;;5051401;28;20074;-71
2022/05/21 08:02:08;;;;;;;8.68;2.75;;;;;;;;;;5053923;28;20036;-72
2022/05/21 08:04:38;;;;;;;7.18;2.05;;;;;;;;;;5054077;28;20024;-72
2022/05/21 08:07:05;;;;;;;6.63;2.40;;;;;;;;;;5052266;28;20482;-72
2022/05/21 08:09:31;;;;;;;4.13;2.45;;;;;;;;;;5052218;28;20043;-72
2022/05/21 08:11:57;;;;;;;4.50;2.30;;;;;;;;;;5052299;28;20037;-72
2022/05/21 08:14:24;;;;;;;3.70;2.10;;;;;;;;;;5052209;28;20020;-72
2022/05/21 08:16:51;;;;;;;2.83;2.15;;;;;;;;;;5054248;28;20027;-72
2022/05/21 08:19:17;;;;;;;4.60;2.17;;;;;;;;;;5052300;28;20024;-72
2022/05/21 08:21:44;;;;;;;5.18;2.28;;;;;;;;;;5051953;28;20031;-72
2022/05/21 08:26:59;;;;;;;4.03;2.03;;;;;;;;;;5052095;28;20388;-72
2022/05/21 08:29:26;;;;;;;5.15;2.20;;;;;;;;;;5051040;28;20025;-72
2022/05/21 08:31:52;;;;;;;4.88;2.38;;;;;;;;;;5053598;28;20037;-72
2022/05/21 08:34:19;;;;;;;4.70;2.40;;;;;;;;;;5050623;28;20055;-72
2022/05/21 08:36:46;;;;;;;4.20;2.17;;;;;;;;;;5051744;28;20371;-72
2022/05/21 08:39:12;;;;;;;6.70;2.17;;;;;;;;;;5062615;28;20021;-72
2022/05/21 08:41:58;;;;;;;4.30;2.00;;;;;;;;;;5052138;28;20017;-72
2022/05/21 08:44:48;;;;;;;9.13;2.22;;;;;;;;;;5051517;28;20025;-70
2022/05/21 08:47:17;;;;;;;6.78;2.63;;;;;;;;;;5049689;28;20045;-70
2022/05/21 08:49:51;;;;;;;6.03;2.20;;;;;;;;;;5053611;28;20099;-70
2022/05/21 08:52:37;;;;;;;5.05;1.83;;;;;;;;;;5050773;28;20047;-70
2022/05/21 08:55:05;;;;;;;6.47;2.22;;;;;;;;;;5051255;28;20031;-70
2022/05/21 08:57:42;;;;;;;4.18;2.40;;;;;;;;;;5051571;28;20017;-70
2022/05/21 09:00:10;;;;;;;7.03;2.35;;;;;;;;;;5051611;28;20021;-70
2022/05/21 09:02:37;;;;;;;2.83;1.98;;;;;;;;;;5051420;28;20013;-70
2022/05/21 09:05:04;;;;;;;3.53;1.80;;;;;;;;;;5052529;28;20424;-70
2022/05/21 09:07:38;;;;;;;5.28;2.40;;;;;;;;;;5051975;28;20033;-70
2022/05/21 09:10:24;;;;;;;6.60;2.22;;;;;;;;;;5049611;28;20492;-70
2022/05/21 09:12:58;;;;;;;5.78;2.17;;;;;;;;;;5050651;28;20512;-70
2022/05/21 09:18:11;;;;;;;3.40;2.20;;;;;;;;;;5051151;28;20025;-71
2022/05/21 09:20:41;;;;;;;4.90;2.40;;;;;;;;;;5050945;28;20021;-70
2022/05/21 09:23:11;;;;;;;11.20;2.30;;;;;;;;;;5052278;28;20035;-70
2022/05/21 09:25:37;;;;;;;9.10;2.30;;;;;;;;;;5052643;28;20383;-71
2022/05/21 09:28:11;;;;;;;6.63;2.33;;;;;;;;;;5050395;28;20037;-70
2022/05/21 09:30:40;;;;;;;4.82;2.17;;;;;;;;;;5050723;28;20070;-71
2022/05/21 09:33:25;;;;;;;7.72;2.55;;;;;;;;;;5050598;28;20617;-71
2022/05/21 09:35:56;;;;;;;5.32;2.55;;;;;;;;;;5050581;28;20035;-70
2022/05/21 09:38:23;;;;;;;10.35;2.63;;;;;;;;;;5050636;28;20079;-71
2022/05/21 09:40:50;;;;;;;9.05;2.65;;;;;;;;;;5052558;28;20017;-71
2022/05/21 09:46:20;;;;;;;6.13;2.30;;;;;;;;;;5050252;28;20470;-71
2022/05/21 09:48:47;;;;;;;4.88;2.22;;;;;;;;;;5048933;28;20514;-71
2022/05/21 09:51:30;;;;;;;8.13;2.40;;;;;;;;;;5050322;28;20401;-71
2022/05/21 09:53:57;;;;;;;5.20;2.40;;;;;;;;;;5050670;28;20033;-70
2022/05/21 09:56:25;;;;;;;5.50;2.30;;;;;;;;;;5048661;28;20090;-71
2022/05/21 09:58:54;;;;;;;5.80;2.35;;;;;;;;;;5051124;28;20029;-71
2022/05/21 10:01:58;;;;;;;6.90;2.90;;;;;;;;;;5050178;28;20428;-71
2022/05/21 10:04:29;;;;;;;4.25;2.63;;;;;;;;;;5017925;28;20040;-71
2022/05/21 10:07:07;;;;;;;6.43;2.50;;;;;;;;;;5018642;28;20034;-71
2022/05/21 10:12:45;;;;;;;5.97;2.38;;;;;;;;;;5018267;28;20053;-71
2022/05/21 10:15:14;;;;;;;5.78;2.38;;;;;;;;;;5018628;28;20025;-71
2022/05/21 10:17:42;;;;;;;5.43;2.30;;;;;;;;;;5015689;28;20025;-71
2022/05/21 10:20:14;;;;;;;3.22;2.28;;;;;;;;;;5013707;28;20033;-71
2022/05/21 10:22:48;;;;;;;8.23;2.42;;;;;;;;;;5011622;28;20037;-71
2022/05/21 10:25:17;;;;;;;8.48;2.88;;;;;;;;;;5019146;28;20033;-71
2022/05/21 10:28:02;;;;;;;4.72;2.53;;;;;;;;;;5024024;28;20033;-71
2022/05/21 10:30:31;;;;;;;4.18;2.20;;;;;;;;;;5025938;28;20295;-71
2022/05/21 10:32:58;;;;;;;;;;;;;;;;;;5017899;28;20049;-71
2022/05/21 10:35:30;;;;;;;4.95;2.35;;;;;;;;;;5013485;28;19912;-71
2022/05/21 10:38:15;;;;;;;6.18;2.80;;;;;;;;;;5026451;28;20505;-71
2022/05/21 10:40:53;;;;;;;5.72;2.50;;;;;;;;;;5048553;28;20044;-71
2022/05/21 10:43:20;;;;;;;;;;;;;;;;;;5050221;28;20036;-71
2022/05/21 10:45:53;;;;;;;4.55;2.40;;;;;;;;;;5049696;28;19974;-72
2022/05/21 10:48:29;;;;;;;4.93;2.88;;;;;;;;;;5049783;28;20041;-71
2022/05/21 10:51:14;;;;;;;6.90;2.80;;;;;;;;;;5049844;28;20481;-71
2022/05/21 10:53:40;;;;;;;6.93;2.90;;;;;;;;;;5035229;28;20036;-71
2022/05/21 10:56:18;;;;;;;10.88;2.92;;;;;;;;;;5051026;28;20031;-71
2022/05/21 10:58:57;;;;;;;9.55;2.80;;;;;;;;;;5050149;28;20033;-71
2022/05/21 11:01:40;;;;;;;9.43;2.90;;;;;;;;;;5049714;28;20041;-71
2022/05/21 11:04:24;;;;;;;5.82;2.72;;;;;;;;;;5049648;28;20029;-71
2022/05/21 11:07:02;;;;;;;6.00;2.78;;;;;;;;;;5048383;28;20021;-71
2022/05/21 11:09:32;;;;;;;8.25;2.55;;;;;;;;;;5049465;28;20029;-71
2022/05/21 11:12:25;;;;;;;5.93;2.72;;;;;;;;;;5049732;28;20021;-71
2022/05/21 11:14:59;;;;;;;10.55;2.40;;;;;;;;;;5037271;28;20154;-71
2022/05/21 11:17:41;;;;;;;13.02;2.70;;;;;;;;;;5053384;28;20032;-71
2022/05/21 11:20:14;;;;;;;3.88;2.30;;;;;;;;;;5051803;28;20017;-71
2022/05/21 11:22:59;;;;;;;6.82;2.58;;;;;;;;;;5051805;28;20047;-71
2022/05/21 11:25:44;;;;;;;6.15;2.13;;;;;;;;;;5051542;28;20029;-71
2022/05/21 11:28:23;;;;;;;6.78;2.47;;;;;;;;;;5053045;28;20028;-71
2022/05/21 11:30:51;;;;;;;6.60;2.50;;;;;;;;;;5053141;28;20025;-72
2022/05/21 11:38:47;;;;;;;7.03;2.70;;;;;;;;;;5052882;28;20029;-71
2022/05/21 11:41:29;;;;;;;11.88;2.70;;;;;;;;;;5053417;28;20029;-71
2022/05/21 11:44:55;;;;;;;13.75;2.60;;;;;;;;;;5049382;28;20036;-71
2022/05/21 11:46:45;;;;;;;5.78;2.58;;;;;;;;;;5053042;28;20039;-71
2022/05/21 11:49:30;;;;;;;6.82;2.70;;;;;;;;;;5052612;28;20409;-71
2022/05/21 11:52:00;;;;;;;11.02;2.45;;;;;;;;;;5052121;28;20179;-71
2022/05/21 11:54:45;;;;;;;9.80;2.58;;;;;;;;;;5052791;28;20017;-72
2022/05/21 11:57:11;;;;;;;6.82;2.40;;;;;;;;;;5052457;28;20029;-71
2022/05/21 11:59:51;;;;;;;9.57;2.58;;;;;;;;;;5052526;28;20031;-72
2022/05/21 12:02:21;;;;;;;8.77;2.53;;;;;;;;;;5052526;28;20032;-71
2022/05/21 12:04:49;;;;;;;13.35;2.97;;;;;;;;;;5054605;28;20031;-71
2022/05/21 12:07:17;;;;;;;14.35;3.25;;;;;;;;;;5051920;28;20031;-72
2022/05/21 12:09:58;;;;;;;9.70;3.03;;;;;;;;;;5052201;28;20409;-72
2022/05/21 12:12:25;;;;;;;11.48;2.80;;;;;;;;;;5052150;28;20493;-71
2022/05/21 12:14:56;;;;;;;5.15;2.60;;;;;;;;;;5052279;28;20037;-72
2022/05/21 12:17:41;;;;;;;7.90;2.97;;;;;;;;;;5052464;28;20028;-71
2022/05/21 12:20:11;;;;;;;8.27;2.60;;;;;;;;;;5050917;28;20025;-71
2022/05/21 12:22:37;;;;;;;10.35;3.00;;;;;;;;;;5053309;28;20466;-72
2022/05/21 12:25:04;;;;;;;11.15;2.80;;;;;;;;;;5050646;28;20020;-71
2022/05/21 12:27:30;;;;;;;8.77;3.20;;;;;;;;;;5051134;28;20242;-72
2022/05/21 12:30:00;;;;;;;11.48;2.97;;;;;;;;;;5052220;28;20017;-71
2022/05/21 12:32:27;;;;;;;8.70;2.90;;;;;;;;;;5052075;28;22264;-71
2022/05/21 12:35:14;;;;;;;10.48;2.53;;;;;;;;;;5053918;28;20470;-72
2022/05/21 12:37:45;;;;;;;10.35;3.10;;;;;;;;;;5051627;28;20025;-72
2022/05/21 12:40:25;;;;;;;12.02;3.03;;;;;;;;;;5051664;28;20025;-71
2022/05/21 12:42:55;;;;;;;13.05;2.70;;;;;;;;;;5051607;28;20035;-72
2022/05/21 12:45:30;;;;;;;7.35;2.55;;;;;;;;;;5051828;28;20013;-72
2022/05/21 12:48:23;;;;;;;8.10;2.80;;;;;;;;;;5051646;28;20086;-72
2022/05/21 12:50:49;;;;;;;9.18;2.83;;;;;;;;;;5037219;28;20099;-72
2022/05/21 12:53:39;;;;;;;8.18;3.17;;;;;;;;;;5051461;28;20397;-71
2022/05/21 12:56:27;;;;;;;7.05;2.63;;;;;;;;;;5046892;28;20047;-71
2022/05/21 12:59:09;;;;;;;14.13;3.05;;;;;;;;;;5053641;28;20017;-71
2022/05/21 13:01:43;;;;;;;3.67;2.40;;;;;;;;;;5053143;28;20029;-72
2022/05/21 13:04:26;;;;;;;12.25;2.97;;;;;;;;;;5050131;28;20021;-71
2022/05/21 13:06:58;;;;;;;9.77;2.92;;;;;;;;;;5062068;28;20037;-71
2022/05/21 13:09:25;;;;;;;7.63;2.90;;;;;;;;;;5051136;28;20413;-72
2022/05/21 13:11:51;;;;;;;7.50;2.60;;;;;;;;;;5051215;28;20035;-71
2022/05/21 13:14:23;;;;;;;12.10;2.70;;;;;;;;;;5051466;28;20043;-72
2022/05/21 13:16:54;;;;;;;7.05;2.70;;;;;;;;;;5053407;28;20043;-71
2022/05/21 13:19:28;;;;;;;9.82;2.72;;;;;;;;;;5050561;28;20028;-72
2022/05/21 13:22:07;;;;;;;9.93;2.50;;;;;;;;;;5051011;28;20025;-72
2022/05/21 13:24:33;;;;;;;9.97;2.80;;;;;;;;;;5050766;28;20028;-71
2022/05/21 13:27:15;;;;;;;9.75;2.90;;;;;;;;;;5050875;28;20021;-71
2022/05/21 13:29:42;;;;;;;8.02;2.55;;;;;;;;;;5036797;28;20021;-71
2022/05/21 13:32:25;;;;;;;11.73;3.08;;;;;;;;;;5051824;28;20039;-72
2022/05/21 13:35:05;;;;;;;6.25;2.90;;;;;;;;;;5051197;28;20025;-71
2022/05/21 13:37:38;;;;;;;6.43;2.55;;;;;;;;;;5050019;28;20040;-71
2022/05/21 13:40:05;;;;;;;9.20;2.95;;;;;;;;;;5049779;28;20029;-71
2022/05/21 13:42:31;;;;;;;13.75;3.13;;;;;;;;;;5049265;28;20033;-71
2022/05/21 13:45:05;;;;;;;8.07;2.88;;;;;;;;;;5050816;28;20070;-71
2022/05/21 13:47:36;;;;;;;10.55;2.58;;;;;;;;;;5034843;28;20410;-71
2022/05/21 13:50:02;;;;;;;8.00;2.97;;;;;;;;;;5048052;28;20367;-71
2022/05/21 13:52:29;;;;;;;7.68;3.03;;;;;;;;;;5049488;28;20039;-71
2022/05/21 13:54:56;;;;;;;11.15;2.75;;;;;;;;;;5050247;28;20025;-71
2022/05/21 13:57:27;;;;;;;9.38;2.88;;;;;;;;;;5050228;28;20020;-71
2022/05/21 13:59:58;;;;;;;5.90;2.60;;;;;;;;;;5050526;28;20021;-72
2022/05/21 14:02:34;;;;;;;11.57;2.95;;;;;;;;;;5049995;28;20021;-71
2022/05/21 14:05:18;;;;;;;7.68;2.47;;;;;;;;;;5048409;28;20506;-73
2022/05/21 14:08:14;;;;;;;7.80;2.53;;;;;;;;;;5050701;28;20029;-73
2022/05/21 14:10:48;;;;;;;11.98;2.67;;;;;;;;;;5042877;28;20037;-72
2022/05/21 14:13:34;;;;;;;12.00;2.70;;;;;;;;;;5050196;28;20040;-72
2022/05/21 14:16:20;;;;;;;15.57;2.50;;;;;;;;;;5050127;28;20559;-73
2022/05/21 14:18:59;;;;;;;6.85;2.72;;;;;;;;;;5049405;28;20377;-72
2022/05/21 14:21:26;;;;;;;12.60;2.78;;;;;;;;;;5048589;28;20076;-73
2022/05/21 14:24:07;;;;;;;8.82;2.75;;;;;;;;;;5049998;28;20020;-73
2022/05/21 14:26:33;;;;;;;7.65;2.72;;;;;;;;;;5034815;28;20028;-73
2022/05/21 14:29:01;;;;;;;10.23;3.10;;;;;;;;;;5052110;28;20481;-72
2022/05/21 14:31:33;;;;;;;7.50;2.60;;;;;;;;;;5050031;28;20481;-73
2022/05/21 14:34:15;;;;;;;10.85;2.83;;;;;;;;;;5060828;28;20509;-73
2022/05/21 14:36:46;;;;;;;5.63;3.00;;;;;;;;;;5049879;28;20055;-73
2022/05/21 14:39:12;;;;;;;11.02;2.83;;;;;;;;;;5049983;28;20030;-73
2022/05/21 14:41:44;;;;;;;9.35;2.88;;;;;;;;;;5050110;28;20378;-73
2022/05/21 14:44:22;;;;;;;6.20;2.83;;;;;;;;;;5050919;28;20047;-72
2022/05/21 14:49:34;;;;;;;8.88;2.72;;;;;;;;;;5051299;28;20063;-72
2022/05/21 14:54:47;;;;;;;8.45;2.83;;;;;;;;;;5053853;28;20063;-72
2022/05/21 14:57:14;;;;;;;9.23;3.10;;;;;;;;;;5053713;28;20033;-73
2022/05/21 14:59:41;;;;;;;8.30;3.00;;;;;;;;;;5051786;28;20385;-72
2022/05/21 15:02:08;;;;;;;8.95;3.00;;;;;;;;;;5054977;28;20033;-73
2022/05/21 15:04:34;;;;;;;8.02;2.92;;;;;;;;;;5054004;28;20025;-74
2022/05/21 15:07:01;;;;;;;12.00;3.30;;;;;;;;;;5053544;28;20025;-73
2022/05/21 15:09:28;;;;;;;10.43;3.00;;;;;;;;;;5053431;28;20025;-72
2022/05/21 15:11:54;;;;;;;7.25;3.28;;;;;;;;;;5053400;28;20025;-72
2022/05/21 15:14:20;;;;;;;18.30;3.47;;;;;;;;;;5053570;28;20497;-73
2022/05/21 15:16:47;;;;;;;7.88;2.78;;;;;;;;;;5055440;28;20032;-73
2022/05/21 15:19:13;;;;;;;9.65;3.08;;;;;;;;;;5053096;28;20428;-72
2022/05/21 15:21:45;;;;;;;12.18;2.92;;;;;;;;;;5053357;28;20039;-73
2022/05/21 15:24:11;;;;;;;8.25;3.20;;;;;;;;;;5053259;28;20517;-72
2022/05/21 15:26:38;;;;;;;13.02;2.97;;;;;;;;;;5053370;28;20038;-73
2022/05/21 15:29:04;;;;;;;9.88;2.80;;;;;;;;;;5054398;28;20028;-73
2022/05/21 15:31:31;;;;;;;12.95;3.30;;;;;;;;;;5053576;28;20032;-73
2022/05/21 15:33:58;;;;;;;8.35;3.10;;;;;;;;;;5052907;28;20576;-73
2022/05/21 15:36:25;;;;;;;8.75;2.83;;;;;;;;;;5052885;28;20040;-73
2022/05/21 15:38:52;;;;;;;8.63;3.00;;;;;;;;;;5051931;28;20036;-73